createdAt,value
2018-01-10T00:00:16.831Z,100056.26
2018-01-10T00:02:44.787Z,100050.05
2018-01-10T00:05:13.132Z,100055.19
2018-01-10T00:07:40.592Z,100051.48
2018-01-10T00:10:08.394Z,100055.03
2018-01-10T00:12:35.849Z,100066.63
2018-01-10T00:15:03.355Z,100065.97
2018-01-10T00:17:30.831Z,100063.95
2018-01-10T00:19:58.371Z,100067.91
2018-01-10T00:22:25.842Z,100068.58
2018-01-10T00:24:53.673Z,100065.02
2018-01-10T00:27:21.155Z,100066.19
2018-01-10T00:29:48.667Z,100062.22
2018-01-10T00:32:16.197Z,100058.13
2018-01-10T00:34:43.717Z,100061.16
2018-01-10T00:37:11.339Z,100057.31
2018-01-10T00:39:38.814Z,100054.66
2018-01-10T00:42:06.327Z,100060.28
2018-01-10T00:44:33.864Z,100055.00
2018-01-10T00:47:01.368Z,100056.45
2018-01-10T00:49:28.836Z,100057.90
2018-01-10T00:51:56.354Z,100049.56
2018-01-10T00:54:23.824Z,100046.83
2018-01-10T00:56:51.298Z,100051.70
2018-01-10T00:59:18.755Z,100060.25
2018-01-10T01:01:46.365Z,100062.64
2018-01-10T01:04:13.898Z,100059.33
2018-01-10T01:06:41.413Z,100059.72
2018-01-10T01:09:08.925Z,100062.62
2018-01-10T01:11:36.448Z,100071.31
2018-01-10T01:14:04.099Z,100068.53
2018-01-10T01:16:31.571Z,100072.45
2018-01-10T01:18:59.061Z,100073.27
2018-01-10T01:21:26.633Z,100076.66
2018-01-10T01:23:54.113Z,100078.36
2018-01-10T01:26:21.749Z,100075.72
2018-01-10T01:28:49.218Z,100075.80
2018-01-10T01:31:16.748Z,100077.22
2018-01-10T01:33:44.944Z,100077.30
2018-01-10T01:36:12.439Z,100071.10
2018-01-10T01:38:39.912Z,100076.64
2018-01-10T01:41:07.382Z,100079.81
2018-01-10T01:43:34.850Z,100087.68
2018-01-10T01:46:02.309Z,100086.73
2018-01-10T01:48:29.782Z,100091.37
2018-01-10T01:50:58.121Z,100085.55
2018-01-10T01:53:25.669Z,100088.72
2018-01-10T01:55:54.221Z,100085.02
2018-01-10T01:58:21.728Z,100077.47
2018-01-10T02:00:49.723Z,100078.41
2018-01-10T02:03:17.706Z,100076.08
2018-01-10T02:05:45.179Z,100082.93
2018-01-10T02:08:13.834Z,100080.81
2018-01-10T02:10:41.415Z,100081.95
2018-01-10T02:13:08.941Z,100078.90
2018-01-10T02:15:36.436Z,100079.71
2018-01-10T02:18:03.977Z,100080.87
2018-01-10T02:20:31.876Z,100082.05
2018-01-10T02:22:59.412Z,100083.52
2018-01-10T02:25:26.962Z,100082.33
2018-01-10T02:28:00.167Z,100083.75
2018-01-10T02:30:27.694Z,100075.29
2018-01-10T02:32:55.199Z,100083.06
2018-01-10T02:35:23.040Z,100083.47
2018-01-10T02:37:50.519Z,100081.21
2018-01-10T02:40:18.256Z,100078.73
2018-01-10T02:42:45.713Z,100079.69
2018-01-10T02:45:13.220Z,100081.69
2018-01-10T02:47:40.713Z,100065.11
2018-01-10T02:50:08.190Z,100067.91
2018-01-10T02:52:35.728Z,100060.79
2018-01-10T02:55:03.186Z,100064.47
2018-01-10T02:57:30.674Z,100062.47
2018-01-10T02:59:58.257Z,100066.28
2018-01-10T03:02:25.752Z,100057.46
2018-01-10T03:04:53.432Z,100061.28
2018-01-10T03:07:21.459Z,100059.44
2018-01-10T03:09:49.236Z,100063.25
2018-01-10T03:12:16.746Z,100059.30
2018-01-10T03:14:44.331Z,100053.23
2018-01-10T03:17:12.835Z,100052.17
2018-01-10T03:19:40.927Z,100051.89
2018-01-10T03:22:10.101Z,100051.77
2018-01-10T03:24:38.524Z,100053.52
2018-01-10T03:27:06.095Z,100049.58
2018-01-10T03:29:35.517Z,100047.04
2018-01-10T03:32:03.123Z,100042.45
2018-01-10T03:34:30.674Z,100041.92
2018-01-10T03:36:58.197Z,100035.73
2018-01-10T03:39:26.046Z,100033.36
2018-01-10T03:41:53.551Z,100031.38
2018-01-10T03:44:21.030Z,100040.71
2018-01-10T03:46:48.533Z,100040.19
2018-01-10T03:49:15.995Z,100045.96
2018-01-10T03:51:43.484Z,100048.70
2018-01-10T03:54:10.968Z,100044.61
2018-01-10T03:56:38.946Z,100040.78
2018-01-10T03:59:07.294Z,100049.59
2018-01-10T04:01:34.840Z,100050.67
2018-01-10T04:04:02.335Z,100047.33
2018-01-10T04:06:29.816Z,100050.89
2018-01-10T04:08:57.294Z,100050.89
2018-01-10T04:11:24.830Z,100049.02
2018-01-10T04:13:52.360Z,100062.31
2018-01-10T04:16:19.824Z,100057.80
2018-01-10T04:18:47.428Z,100060.95
2018-01-10T04:21:14.900Z,100065.76
2018-01-10T04:23:42.450Z,100066.34
2018-01-10T04:26:09.965Z,100070.32
2018-01-10T04:28:37.504Z,100064.41
2018-01-10T04:31:04.950Z,100062.20
2018-01-10T04:33:32.448Z,100060.63
2018-01-10T04:35:59.910Z,100061.31
2018-01-10T04:38:27.517Z,100061.19
2018-01-10T04:40:55.013Z,100055.94
2018-01-10T04:43:22.567Z,100056.87
2018-01-10T04:45:50.015Z,100058.05
2018-01-10T04:48:18.068Z,100053.84
2018-01-10T04:50:45.612Z,100051.38
2018-01-10T04:53:13.146Z,100051.53
2018-01-10T04:55:40.655Z,100054.16
2018-01-10T04:58:11.551Z,100059.71
2018-01-10T05:00:39.070Z,100056.54
2018-01-10T05:03:06.536Z,100054.18
2018-01-10T05:05:34.053Z,100049.69
2018-01-10T05:08:01.584Z,100049.71
2018-01-10T05:10:29.151Z,100041.66
2018-01-10T05:12:56.624Z,100039.81
2018-01-10T05:15:24.086Z,100042.45
2018-01-10T05:17:51.649Z,100047.88
2018-01-10T05:20:19.107Z,100041.79
2018-01-10T05:22:46.743Z,100050.36
2018-01-10T05:25:14.217Z,100050.99
2018-01-10T05:27:41.695Z,100053.40
2018-01-10T05:30:09.230Z,100055.24
2018-01-10T05:32:36.719Z,100052.20
2018-01-10T05:35:05.171Z,100054.61
2018-01-10T05:37:33.326Z,100046.70
2018-01-10T05:40:06.140Z,100042.36
2018-01-10T05:42:33.697Z,100039.70
2018-01-10T05:45:01.221Z,100039.05
2018-01-10T05:47:28.749Z,100047.35
2018-01-10T05:49:56.223Z,100044.90
2018-01-10T05:52:23.731Z,100047.65
2018-01-10T05:54:51.216Z,100056.48
2018-01-10T05:57:18.739Z,100052.94
2018-01-10T05:59:46.897Z,100053.84
2018-01-10T06:02:14.965Z,100048.34
2018-01-10T06:04:42.517Z,100053.38
2018-01-10T06:07:10.070Z,100051.93
2018-01-10T06:09:37.880Z,100051.00
2018-01-10T06:12:06.152Z,100047.47
2018-01-10T06:14:34.158Z,100052.89
2018-01-10T06:17:01.658Z,100062.55
2018-01-10T06:19:29.162Z,100069.91
2018-01-10T06:21:56.699Z,100069.69
2018-01-10T06:24:24.196Z,100061.89
2018-01-10T06:26:51.759Z,100064.64
2018-01-10T06:29:19.943Z,100054.62
2018-01-10T06:31:48.704Z,100049.34
2018-01-10T06:34:16.429Z,100048.02
2018-01-10T06:36:43.920Z,100055.69
2018-01-10T06:39:11.425Z,100057.14
2018-01-10T06:41:39.857Z,100064.11
2018-01-10T06:44:07.345Z,100065.57
2018-01-10T06:46:34.875Z,100065.57
2018-01-10T06:49:02.481Z,100071.14
2018-01-10T06:51:29.939Z,100070.50
2018-01-10T06:53:57.444Z,100065.89
2018-01-10T06:56:25.050Z,100075.67
2018-01-10T06:58:52.561Z,100083.75
2018-01-10T07:01:20.020Z,100079.11
2018-01-10T07:03:47.568Z,100090.56
2018-01-10T07:06:15.091Z,100085.31
2018-01-10T07:08:42.541Z,100080.30
2018-01-10T07:11:10.011Z,100085.44
2018-01-10T07:13:37.532Z,100089.66
2018-01-10T07:16:05.043Z,100090.17
2018-01-10T07:18:32.543Z,100098.07
2018-01-10T07:21:00.157Z,100092.88
2018-01-10T07:23:27.705Z,100090.48
2018-01-10T07:25:55.238Z,100083.86
2018-01-10T07:28:22.744Z,100082.80
2018-01-10T07:30:50.200Z,100079.12
2018-01-10T07:33:18.042Z,100082.52
2018-01-10T07:35:45.496Z,100083.32
2018-01-10T07:38:13.018Z,100086.20
2018-01-10T07:40:40.514Z,100087.11
2018-01-10T07:43:08.084Z,100092.36
2018-01-10T07:45:35.585Z,100090.89
2018-01-10T07:48:03.083Z,100086.81
2018-01-10T07:50:30.632Z,100081.30
2018-01-10T07:52:58.234Z,100072.91
2018-01-10T07:55:25.754Z,100071.88
2018-01-10T07:57:53.528Z,100074.41
2018-01-10T08:00:21.269Z,100076.25
2018-01-10T08:02:49.616Z,100074.67
2018-01-10T08:05:17.128Z,100080.61
2018-01-10T08:07:44.687Z,100079.84
2018-01-10T08:10:12.241Z,100079.73
2018-01-10T08:12:39.933Z,100077.73
2018-01-10T08:15:07.413Z,100079.73
2018-01-10T08:17:34.987Z,100080.63
2018-01-10T08:20:02.451Z,100080.20
2018-01-10T08:22:30.075Z,100088.25
2018-01-10T08:24:57.559Z,100088.64
2018-01-10T08:27:25.026Z,100084.31
2018-01-10T08:29:52.490Z,100088.56
2018-01-10T08:32:20.787Z,100091.20
2018-01-10T08:34:49.163Z,100098.20
2018-01-10T08:37:16.711Z,100111.14
2018-01-10T08:39:44.321Z,100108.80
2018-01-10T08:42:11.863Z,100105.64
2018-01-10T08:44:39.503Z,100103.41
2018-01-10T08:47:07.012Z,100104.20
2018-01-10T08:49:34.546Z,100101.69
2018-01-10T08:52:02.280Z,100104.59
2018-01-10T08:54:29.768Z,100105.27
2018-01-10T08:56:57.399Z,100103.97
2018-01-10T08:59:24.959Z,100102.14
2018-01-10T09:01:52.570Z,100102.95
2018-01-10T09:04:20.125Z,100090.18
2018-01-10T09:06:47.684Z,100092.02
2018-01-10T09:09:16.491Z,100100.98
2018-01-10T09:11:44.005Z,100110.12
2018-01-10T09:14:11.521Z,100107.11
2018-01-10T09:16:39.762Z,100112.92
2018-01-10T09:19:08.020Z,100106.64
2018-01-10T09:21:35.611Z,100106.17
2018-01-10T09:24:03.196Z,100106.85
2018-01-10T09:26:30.688Z,100105.96
2018-01-10T09:28:58.179Z,100104.52
2018-01-10T09:31:25.679Z,100108.37
2018-01-10T09:33:53.247Z,100107.97
2018-01-10T09:36:20.796Z,100098.60
2018-01-10T09:38:48.897Z,100095.56
2018-01-10T09:41:17.401Z,100097.30
2018-01-10T09:43:45.134Z,100098.11
2018-01-10T09:46:12.704Z,100098.12
2018-01-10T09:48:40.316Z,100093.36
2018-01-10T09:51:07.869Z,100090.22
2018-01-10T09:53:35.431Z,100082.54
2018-01-10T09:56:03.037Z,100082.05
2018-01-10T09:58:31.415Z,100077.02
2018-01-10T10:00:58.985Z,100075.97
2018-01-10T10:03:26.567Z,100076.11
2018-01-10T10:05:54.097Z,100072.70
2018-01-10T10:08:21.622Z,100063.97
2018-01-10T10:10:49.146Z,100059.09
2018-01-10T10:13:16.889Z,100057.77
2018-01-10T10:15:44.519Z,100058.28
2018-01-10T10:18:12.006Z,100052.89
2018-01-10T10:20:39.588Z,100049.03
2018-01-10T10:23:07.059Z,100041.77
2018-01-10T10:25:34.545Z,100039.77
2018-01-10T10:28:02.156Z,100043.63
2018-01-10T10:30:29.764Z,100044.94
2018-01-10T10:32:57.295Z,100039.92
2018-01-10T10:35:25.070Z,100032.52
2018-01-10T10:37:52.730Z,100024.28
2018-01-10T10:40:20.289Z,100024.41
2018-01-10T10:42:47.840Z,100029.14
2018-01-10T10:45:15.410Z,100027.16
2018-01-10T10:47:42.909Z,100022.36
2018-01-10T10:50:10.448Z,100021.55
2018-01-10T10:52:38.032Z,100018.06
2018-01-10T10:55:05.577Z,100019.22
2018-01-10T10:57:33.097Z,100006.09
2018-01-10T11:00:00.724Z,100000.34
2018-01-10T11:02:28.424Z,100004.58
2018-01-10T11:04:55.903Z,100002.18
2018-01-10T11:07:25.743Z,100002.43
2018-01-10T11:09:54.442Z,100008.00
2018-01-10T11:12:21.985Z,99999.23
2018-01-10T11:14:49.528Z,100002.26
2018-01-10T11:17:17.065Z,100002.88
2018-01-10T11:19:44.619Z,100005.92
2018-01-10T11:22:12.131Z,100008.69
2018-01-10T11:24:39.634Z,100008.11
2018-01-10T11:27:07.238Z,100000.23
2018-01-10T11:29:34.691Z,99993.84
2018-01-10T11:32:02.318Z,99993.12
2018-01-10T11:34:30.281Z,99988.04
2018-01-10T11:36:57.859Z,99987.06
2018-01-10T11:39:26.062Z,99988.30
2018-01-10T11:41:53.760Z,99978.89
2018-01-10T11:44:21.322Z,99982.35
2018-01-10T11:46:49.015Z,99973.15
2018-01-10T11:49:16.756Z,99975.78
2018-01-10T11:58:29.874Z,99964.19
2018-01-10T12:00:57.422Z,99960.95
2018-01-10T12:03:25.084Z,99959.75
2018-01-10T12:05:52.682Z,99953.86
2018-01-10T12:08:20.457Z,99957.09
2018-01-10T12:10:48.006Z,99953.53
2018-01-10T12:13:15.497Z,99951.06
2018-01-10T12:15:43.012Z,99951.56
2018-01-10T12:18:10.525Z,99956.44
2018-01-10T12:20:38.591Z,99952.97
2018-01-10T12:23:06.067Z,99959.45
2018-01-10T12:25:34.478Z,99959.61
2018-01-10T12:28:02.037Z,99959.66
2018-01-10T12:30:29.566Z,99962.09
2018-01-10T12:32:57.112Z,99953.99
2018-01-10T12:35:24.769Z,99956.41
2018-01-10T12:37:52.408Z,99957.14
2018-01-10T12:40:20.059Z,99952.52
2018-01-10T12:42:47.665Z,99954.94
2018-01-10T12:45:15.134Z,99952.75
2018-01-10T12:47:42.651Z,99951.72
2018-01-10T12:50:21.818Z,99955.61
2018-01-10T12:52:49.331Z,99959.66
2018-01-10T12:55:16.925Z,99958.57
2018-01-10T12:57:46.180Z,99952.81
2018-01-10T13:00:13.771Z,99954.92
2018-01-10T13:02:41.373Z,99955.86
2018-01-10T13:05:08.920Z,99953.97
2018-01-10T13:07:36.526Z,99958.98
2018-01-10T13:10:04.030Z,99956.83
2018-01-10T13:12:31.531Z,99959.45
2018-01-10T13:14:59.091Z,99962.42
2018-01-10T13:17:26.815Z,99953.64
2018-01-10T13:19:54.424Z,99956.28
2018-01-10T13:22:22.370Z,99957.36
2018-01-10T13:24:49.896Z,99956.02
2018-01-10T13:27:17.628Z,99948.52
2018-01-10T13:29:45.963Z,99944.23
2018-01-10T13:32:13.422Z,99944.48
2018-01-10T13:34:40.977Z,99944.90
2018-01-10T13:37:08.508Z,99942.69
2018-01-10T13:39:36.061Z,99939.74
2018-01-10T13:42:03.622Z,99947.48
2018-01-10T13:44:31.168Z,99938.56
2018-01-10T13:46:58.744Z,99950.29
2018-01-10T13:49:26.212Z,99944.83
2018-01-10T13:51:53.714Z,99951.20
2018-01-10T13:54:21.331Z,99949.69
2018-01-10T13:56:49.678Z,99950.41
2018-01-10T13:59:17.241Z,99944.33
2018-01-10T14:01:55.187Z,99952.06
2018-01-10T14:04:22.741Z,99949.97
2018-01-10T14:06:50.231Z,99950.97
2018-01-10T14:09:17.855Z,99963.70
2018-01-10T14:11:45.473Z,99955.61
2018-01-10T14:14:12.931Z,99967.92
2018-01-10T14:16:40.554Z,99964.14
2018-01-10T14:19:08.214Z,99965.13
2018-01-10T14:21:37.486Z,99965.39
2018-01-10T14:24:05.063Z,99969.31
2018-01-10T14:26:33.343Z,99974.17
2018-01-10T14:29:01.011Z,99975.92
2018-01-10T14:31:28.583Z,99977.86
2018-01-10T14:33:56.103Z,99976.27
2018-01-10T14:36:23.643Z,99978.27
2018-01-10T14:38:51.922Z,99977.63
2018-01-10T14:41:19.484Z,99978.72
2018-01-10T14:43:47.196Z,99983.28
2018-01-10T14:46:14.727Z,99981.72
2018-01-10T14:48:45.062Z,99984.16
2018-01-10T14:51:12.646Z,99981.33
2018-01-10T14:53:40.102Z,99978.44
2018-01-10T14:56:07.697Z,99985.38
2018-01-10T14:58:35.253Z,99979.58
2018-01-10T15:01:02.783Z,99985.20
2018-01-10T15:03:30.288Z,99988.78
2018-01-10T15:05:57.865Z,99991.75
2018-01-10T15:08:25.465Z,99992.19
2018-01-10T15:10:53.014Z,99987.20
2018-01-10T15:13:20.505Z,99984.19
2018-01-10T15:15:47.970Z,99987.41
2018-01-10T15:18:15.547Z,99986.75
2018-01-10T15:20:43.065Z,99986.66
2018-01-10T15:23:10.887Z,99983.39
2018-01-10T15:25:38.414Z,99987.75
2018-01-10T15:28:05.892Z,99991.54
2018-01-10T15:30:33.471Z,99994.98
2018-01-10T15:33:01.006Z,99989.98
2018-01-10T15:35:28.495Z,99995.04
2018-01-10T15:37:55.986Z,99994.28
2018-01-10T15:40:28.431Z,99994.05
2018-01-10T15:42:55.983Z,99988.91
2018-01-10T15:45:23.470Z,99999.11
2018-01-10T15:47:51.031Z,99998.73
2018-01-10T15:50:19.361Z,99994.64
2018-01-10T15:52:47.082Z,99994.36
2018-01-10T15:55:14.815Z,99994.34
2018-01-10T15:57:42.436Z,100000.28
2018-01-10T16:00:10.935Z,99999.48
2018-01-10T16:02:38.526Z,100006.08
2018-01-10T16:05:05.995Z,100005.88
2018-01-10T16:07:33.494Z,100002.75
2018-01-10T16:10:01.058Z,100002.01
2018-01-10T16:12:28.617Z,100000.44
2018-01-10T16:14:56.080Z,100007.60
2018-01-10T16:17:23.558Z,100009.31
2018-01-10T16:19:51.106Z,99999.91
2018-01-10T16:22:18.662Z,99997.40
2018-01-10T16:24:46.226Z,100006.54
2018-01-10T16:27:13.714Z,99999.27
2018-01-10T16:29:41.295Z,100001.28
2018-01-10T16:32:08.868Z,100005.41
2018-01-10T16:34:36.451Z,100005.95
2018-01-10T16:37:04.743Z,100008.47
2018-01-10T16:39:32.351Z,99999.75
2018-01-10T16:41:59.991Z,100003.45
2018-01-10T16:44:27.544Z,100007.70
2018-01-10T16:46:55.054Z,100001.23
2018-01-10T16:49:22.594Z,100001.38
2018-01-10T16:51:50.506Z,100004.55
2018-01-10T16:54:18.041Z,100001.29
2018-01-10T16:56:45.511Z,100003.32
2018-01-10T16:59:13.021Z,100001.75
2018-01-10T17:01:40.519Z,100011.31
2018-01-10T17:04:08.007Z,100009.73
2018-01-10T17:06:35.534Z,100008.97
2018-01-10T17:09:03.011Z,100003.81
2018-01-10T17:11:30.731Z,100008.45
2018-01-10T17:13:58.348Z,100008.59
2018-01-10T17:16:26.052Z,100010.84
2018-01-10T17:18:53.672Z,100006.37
2018-01-10T17:21:21.286Z,100003.32
2018-01-10T17:23:49.094Z,100006.75
2018-01-10T17:26:17.056Z,100007.16
2018-01-10T17:28:44.661Z,100008.86
2018-01-10T17:31:12.347Z,100000.93
2018-01-10T17:33:39.897Z,99999.98
2018-01-10T17:36:07.466Z,100003.31
2018-01-10T17:38:35.084Z,100007.40
2018-01-10T17:41:02.849Z,100009.00
2018-01-10T17:43:30.367Z,100002.13
2018-01-10T17:45:57.937Z,100002.54
2018-01-10T17:48:25.767Z,100001.08
2018-01-10T17:50:58.337Z,100001.46
2018-01-10T17:53:26.063Z,100005.70
2018-01-10T17:55:53.598Z,100007.83
2018-01-10T17:58:21.243Z,100008.20
2018-01-10T18:00:48.808Z,100007.28
2018-01-10T18:03:16.671Z,100008.06
2018-01-10T18:05:44.359Z,100006.11
2018-01-10T18:08:12.032Z,100007.42
2018-01-10T18:10:40.607Z,100010.74
2018-01-10T18:13:08.190Z,100012.30
2018-01-10T18:15:35.689Z,100011.11
2018-01-10T18:18:03.706Z,100012.55
2018-01-10T18:20:32.308Z,100014.15
2018-01-10T18:22:59.903Z,100016.38
2018-01-10T18:25:27.358Z,100016.25
2018-01-10T18:27:54.947Z,100009.78
2018-01-10T18:30:22.552Z,100007.01
2018-01-10T18:32:50.082Z,100013.09
2018-01-10T18:35:19.112Z,100009.91
2018-01-10T18:37:47.059Z,100008.45
2018-01-10T18:40:14.789Z,100005.81
2018-01-10T18:42:42.356Z,100008.73
2018-01-10T18:45:10.028Z,100012.17
2018-01-10T18:47:37.639Z,100016.37
2018-01-10T18:50:05.145Z,100010.45
2018-01-10T18:52:32.765Z,100013.22
2018-01-10T18:55:01.084Z,100015.58
2018-01-10T18:57:28.691Z,100017.70
2018-01-10T18:59:56.988Z,100026.51
2018-01-10T19:02:24.661Z,100026.91
2018-01-10T19:04:52.371Z,100027.41
2018-01-10T19:07:21.502Z,100028.47
2018-01-10T19:09:49.249Z,100028.45
2018-01-10T19:12:16.988Z,100032.55
2018-01-10T19:14:44.606Z,100029.78
2018-01-10T19:17:12.813Z,100026.91
2018-01-10T19:19:41.084Z,100027.55
2018-01-10T19:22:10.019Z,100030.73
2018-01-10T19:24:40.221Z,100026.64
2018-01-10T19:27:08.300Z,100031.12
2018-01-10T19:29:37.445Z,100030.06
2018-01-10T19:32:05.397Z,100038.55
2018-01-10T19:34:33.798Z,100037.86
2018-01-10T19:37:01.500Z,100037.98
2018-01-10T19:39:30.248Z,100040.33
2018-01-10T19:41:59.173Z,100041.14
2018-01-10T19:44:26.794Z,100044.69
2018-01-10T19:46:56.243Z,100046.41
2018-01-10T19:49:25.300Z,100050.22
2018-01-10T19:51:54.312Z,100052.44
2018-01-10T19:54:21.901Z,100049.02
2018-01-10T19:56:50.877Z,100048.62
2018-01-10T19:59:18.463Z,100046.38
2018-01-10T20:01:46.310Z,100050.33
2018-01-10T20:04:13.998Z,100049.50
2018-01-10T20:06:41.510Z,100052.66
2018-01-10T20:09:09.051Z,100052.03
2018-01-10T20:11:36.585Z,100055.56
2018-01-10T20:14:04.238Z,100046.73
2018-01-10T20:16:31.798Z,100047.64
2018-01-10T20:18:59.624Z,100047.63
2018-01-10T20:21:36.898Z,100045.39
2018-01-10T20:24:05.518Z,100048.55
2018-01-10T20:26:33.757Z,100051.45
2018-01-10T20:29:01.318Z,100053.80
2018-01-10T20:31:28.818Z,100053.15
2018-01-10T20:33:56.339Z,100056.15
2018-01-10T20:36:24.092Z,100054.06
2018-01-10T20:38:51.561Z,100055.23
2018-01-10T20:41:19.457Z,100052.20
2018-01-10T20:43:46.979Z,100055.23
2018-01-10T20:46:14.564Z,100051.94
2018-01-10T20:48:42.911Z,100056.53
2018-01-10T20:51:10.408Z,100052.69
2018-01-10T20:53:38.009Z,100048.34
2018-01-10T20:56:05.580Z,100054.27
2018-01-10T20:58:34.408Z,100050.04
2018-01-10T21:01:01.961Z,100050.17
2018-01-10T21:03:30.374Z,100046.23
2018-01-10T21:05:58.139Z,100051.91
2018-01-10T21:08:25.791Z,100052.81
2018-01-10T21:10:54.006Z,100045.94
2018-01-10T21:13:21.580Z,100052.41
2018-01-10T21:15:49.115Z,100053.69
2018-01-10T21:18:16.713Z,100052.23
2018-01-10T21:20:44.267Z,100054.23
2018-01-10T21:23:11.800Z,100055.03
2018-01-10T21:25:40.394Z,100057.55
2018-01-10T21:28:08.184Z,100053.87
2018-01-10T21:30:36.593Z,100050.87
2018-01-10T21:33:04.858Z,100051.38
2018-01-10T21:35:32.404Z,100054.41
2018-01-10T21:38:00.213Z,100048.58
2018-01-10T21:40:27.877Z,100048.27
2018-01-10T21:42:55.593Z,100051.59
2018-01-10T21:45:23.143Z,100058.59
2018-01-10T21:47:50.718Z,100065.06
2018-01-10T21:50:19.136Z,100070.85
2018-01-10T21:52:48.027Z,100070.87
2018-01-10T21:55:16.102Z,100073.39
2018-01-10T21:57:43.605Z,100071.02
2018-01-10T22:00:11.132Z,100066.67
2018-01-10T22:02:38.713Z,100067.59
2018-01-10T22:05:06.478Z,100068.23
2018-01-10T22:07:34.016Z,100064.92
2018-01-10T22:10:01.553Z,100065.33
2018-01-10T22:12:29.245Z,100066.73
2018-01-10T22:14:56.740Z,100075.31
2018-01-10T22:17:24.239Z,100074.13
2018-01-10T22:19:51.931Z,100078.59
2018-01-10T22:22:19.455Z,100074.87
2018-01-10T22:24:46.965Z,100076.03
2018-01-10T22:27:14.572Z,100075.23
2018-01-10T22:29:42.207Z,100075.91
2018-01-10T22:32:09.753Z,100077.30
2018-01-10T22:34:37.995Z,100078.86
2018-01-10T22:37:05.551Z,100070.16
2018-01-10T22:39:33.095Z,100078.98
2018-01-10T22:42:01.429Z,100073.03
2018-01-10T22:44:28.921Z,100066.45
2018-01-10T22:46:56.422Z,100072.35
2018-01-10T22:49:24.051Z,100072.22
2018-01-10T22:51:51.680Z,100067.98
2018-01-10T22:54:20.125Z,100063.61
2018-01-10T22:56:47.582Z,100071.77
2018-01-10T22:59:15.043Z,100069.28
2018-01-10T23:01:42.631Z,100068.20
2018-01-10T23:04:10.138Z,100069.52
2018-01-10T23:06:38.612Z,100070.33
2018-01-10T23:09:06.178Z,100065.06
2018-01-10T23:11:33.660Z,100065.45
2018-01-10T23:14:01.133Z,100067.17
2018-01-10T23:16:29.563Z,100059.27
2018-01-10T23:18:57.073Z,100061.61
2018-01-10T23:21:34.157Z,100068.41
2018-01-10T23:24:01.677Z,100064.96
2018-01-10T23:26:29.220Z,100070.75
2018-01-10T23:28:56.934Z,100075.65
2018-01-10T23:31:24.389Z,100078.16
2018-01-10T23:33:51.869Z,100081.30
2018-01-10T23:36:19.451Z,100077.77
2018-01-10T23:38:46.934Z,100081.42
2018-01-10T23:41:14.496Z,100080.60
2018-01-10T23:43:41.998Z,100085.70
2018-01-10T23:46:09.462Z,100081.34
2018-01-10T23:48:36.942Z,100084.79
2018-01-10T23:51:04.480Z,100077.14
2018-01-10T23:53:31.999Z,100086.23
2018-01-10T23:55:59.516Z,100083.95
2018-01-10T23:58:27.015Z,100096.34
